Time;durP1;ratioP1;P1;durP2;ratioP2;P2;SDS_P1;SDS_P2;PMS_P1;PMS_P2;Temp;Humidity;BMP_temperature;BMP_pressure;BME280_temperature;BME280_humidity;BME280_pressure;Samples;Min_cycle;Max_cycle;Signal;HPM_P1;HPM_P2
2021/05/30 00:01:53;;;;;;;25.40;13.85;;;14.40;74.40;;;;;;5118277;28;20191;-85
2021/05/30 00:04:20;;;;;;;19.45;12.98;;;14.50;74.70;;;;;;5116548;28;20219;-85
2021/05/30 00:06:46;;;;;;;21.88;14.07;;;14.50;74.70;;;;;;5116344;28;20656;-84
2021/05/30 00:09:12;;;;;;;21.23;13.73;;;14.50;74.50;;;;;;5118493;28;20186;-84
2021/05/30 00:11:38;;;;;;;20.52;14.45;;;14.40;74.50;;;;;;5117040;28;20220;-85
2021/05/30 00:14:05;;;;;;;18.80;14.50;;;14.30;74.70;;;;;;5116293;28;20206;-84
2021/05/30 00:16:32;;;;;;;26.50;13.88;;;14.20;75.00;;;;;;5117882;28;20452;-86
2021/05/30 00:18:59;;;;;;;20.08;13.90;;;14.20;75.20;;;;;;5115506;28;20225;-85
2021/05/30 00:21:25;;;;;;;25.85;13.73;;;14.10;75.40;;;;;;5115776;28;20171;-85
2021/05/30 00:23:50;;;;;;;24.17;14.20;;;14.10;75.50;;;;;;5115861;28;20205;-85
2021/05/30 00:26:16;;;;;;;21.27;13.97;;;14.00;75.50;;;;;;5122149;28;20425;-82
2021/05/30 00:28:42;;;;;;;22.07;14.20;;;14.00;75.70;;;;;;5122310;28;20600;-83
2021/05/30 00:31:08;;;;;;;23.10;13.60;;;13.90;75.80;;;;;;5120020;28;20198;-83
2021/05/30 00:33:34;;;;;;;18.55;12.25;;;13.90;76.00;;;;;;5119764;28;20836;-83
2021/05/30 00:36:00;;;;;;;20.83;14.02;;;13.90;75.90;;;;;;5120541;28;20573;-83
2021/05/30 00:38:25;;;;;;;17.60;12.90;;;14.00;76.00;;;;;;5119859;28;20175;-83
2021/05/30 00:40:54;;;;;;;18.80;13.37;;;14.00;75.80;;;;;;5119155;28;20261;-83
2021/05/30 00:43:20;;;;;;;23.95;14.07;;;13.90;75.70;;;;;;5118308;28;20191;-83
2021/05/30 00:45:48;;;;;;;23.20;14.80;;;13.90;75.70;;;;;;5119768;28;20185;-83
2021/05/30 00:48:14;;;;;;;23.80;14.07;;;13.90;75.70;;;;;;5121910;27;20767;-82
2021/05/30 00:50:40;;;;;;;21.05;13.93;;;13.80;75.70;;;;;;5119409;28;20232;-83
2021/05/30 00:53:06;;;;;;;21.60;14.50;;;13.90;75.70;;;;;;5118853;28;20662;-83
2021/05/30 00:55:32;;;;;;;22.27;12.90;;;13.90;75.60;;;;;;5119210;28;20175;-83
2021/05/30 00:57:58;;;;;;;20.77;13.23;;;13.80;75.50;;;;;;5118904;28;20202;-83
2021/05/30 01:00:24;;;;;;;18.80;12.77;;;13.80;75.40;;;;;;5119244;28;20181;-84
2021/05/30 01:02:50;;;;;;;25.85;13.15;;;13.80;75.50;;;;;;5119582;28;20437;-82
2021/05/30 01:05:16;;;;;;;21.77;12.80;;;13.80;75.60;;;;;;5111214;28;20191;-82
2021/05/30 01:07:42;;;;;;;19.30;12.90;;;13.70;75.60;;;;;;5099586;28;20180;-82
2021/05/30 01:10:28;;;;;;;20.08;13.32;;;13.70;75.60;;;;;;5099622;28;20422;-82
2021/05/30 01:12:55;;;;;;;22.42;13.82;;;13.70;75.70;;;;;;5117127;28;20234;-83
2021/05/30 01:15:21;;;;;;;19.35;12.00;;;13.60;75.60;;;;;;5122155;27;20163;-82
2021/05/30 01:17:47;;;;;;;19.73;12.57;;;13.60;75.60;;;;;;5120429;28;20210;-82
2021/05/30 01:20:17;;;;;;;23.42;13.18;;;13.60;75.70;;;;;;5119541;28;20179;-82
2021/05/30 01:22:45;;;;;;;19.35;11.80;;;13.60;75.60;;;;;;5118674;28;20222;-82
2021/05/30 01:25:13;;;;;;;18.02;13.10;;;13.60;75.60;;;;;;5120473;28;20171;-81
2021/05/30 01:27:40;;;;;;;24.63;14.30;;;13.70;75.80;;;;;;5121102;28;20727;-82
2021/05/30 01:30:08;;;;;;;26.30;13.60;;;13.80;75.50;;;;;;5122556;28;20183;-82
2021/05/30 01:32:34;;;;;;;19.75;12.43;;;13.70;75.20;;;;;;5123851;28;20610;-82
2021/05/30 01:35:01;;;;;;;22.30;12.35;;;13.70;75.20;;;;;;5133979;28;20194;-82
2021/05/30 01:37:26;;;;;;;24.52;14.50;;;13.60;75.10;;;;;;5119820;28;20228;-82
2021/05/30 01:39:52;;;;;;;21.17;15.73;;;13.50;75.50;;;;;;5117763;28;20171;-83
2021/05/30 01:42:18;;;;;;;18.43;12.80;;;13.50;75.60;;;;;;5117179;28;20195;-82
2021/05/30 01:44:44;;;;;;;17.40;12.30;;;13.50;75.70;;;;;;5118256;28;20186;-82
2021/05/30 01:47:09;;;;;;;23.10;13.67;;;13.60;75.60;;;;;;5117676;28;20903;-82
2021/05/30 01:49:36;;;;;;;25.10;13.47;;;13.50;75.50;;;;;;5117618;28;20175;-82
2021/05/30 01:52:03;;;;;;;20.38;13.93;;;13.40;75.50;;;;;;5118046;28;20682;-82
2021/05/30 01:54:29;;;;;;;22.67;15.70;;;13.30;75.90;;;;;;5116439;28;20179;-83
2021/05/30 01:56:59;;;;;;;23.97;14.93;;;13.30;76.10;;;;;;5117156;28;20233;-84
2021/05/30 01:59:28;;;;;;;26.20;16.77;;;13.30;76.20;;;;;;5116344;28;20419;-84
2021/05/30 02:01:56;;;;;;;22.67;14.68;;;13.40;76.20;;;;;;5115593;28;20672;-83
2021/05/30 02:04:26;;;;;;;23.55;16.02;;;13.40;76.10;;;;;;5116416;28;20175;-83
2021/05/30 02:06:53;;;;;;;20.00;15.02;;;13.40;76.00;;;;;;5115865;28;20204;-83
2021/05/30 02:09:20;;;;;;;29.20;17.40;;;13.40;76.00;;;;;;5116515;28;20211;-83
2021/05/30 02:11:46;;;;;;;23.17;15.32;;;13.30;76.00;;;;;;5107974;28;20191;-84
2021/05/30 02:14:14;;;;;;;26.97;14.27;;;13.30;76.00;;;;;;5095852;28;20321;-84
2021/05/30 02:16:41;;;;;;;26.92;16.38;;;13.30;76.10;;;;;;5095536;28;20200;-83
2021/05/30 02:19:07;;;;;;;21.48;14.80;;;13.20;76.00;;;;;;5095693;28;20247;-84
2021/05/30 02:21:45;;;;;;;26.50;15.07;;;13.10;76.20;;;;;;5095211;28;20578;-84
2021/05/30 02:24:13;;;;;;;24.88;14.10;;;13.10;76.60;;;;;;5095294;28;20433;-83
2021/05/30 02:26:39;;;;;;;24.15;12.88;;;13.20;76.50;;;;;;5095113;28;20674;-84
2021/05/30 02:29:06;;;;;;;20.13;13.15;;;13.10;76.60;;;;;;5095249;28;20636;-84
2021/05/30 02:31:33;;;;;;;27.00;13.80;;;13.00;76.50;;;;;;5095216;28;20206;-83
2021/05/30 02:33:59;;;;;;;23.85;13.65;;;13.00;76.90;;;;;;5095650;28;20195;-82
2021/05/30 02:36:26;;;;;;;21.67;13.57;;;13.00;77.00;;;;;;5097508;28;20211;-83
2021/05/30 02:38:52;;;;;;;21.33;12.80;;;13.00;76.90;;;;;;5098485;28;20180;-82
2021/05/30 02:41:18;;;;;;;21.75;13.73;;;13.00;76.80;;;;;;5106876;28;20222;-83
2021/05/30 02:43:43;;;;;;;19.43;12.93;;;13.00;76.70;;;;;;5107878;28;20278;-83
2021/05/30 02:46:09;;;;;;;23.73;15.00;;;12.90;76.80;;;;;;5105741;28;20413;-82
2021/05/30 02:48:36;;;;;;;22.50;14.30;;;12.90;77.00;;;;;;5096900;28;20233;-83
2021/05/30 02:51:03;;;;;;;24.73;14.02;;;12.80;77.00;;;;;;5093714;28;20187;-83
2021/05/30 02:53:30;;;;;;;21.95;13.00;;;12.80;77.20;;;;;;5093243;28;20286;-83
2021/05/30 02:55:57;;;;;;;24.15;14.75;;;12.80;77.20;;;;;;5093303;28;20180;-83
2021/05/30 02:58:24;;;;;;;24.08;13.73;;;12.70;77.30;;;;;;5094160;28;20229;-83
2021/05/30 03:00:50;;;;;;;21.42;14.30;;;12.70;77.50;;;;;;5092383;28;20183;-82
2021/05/30 03:03:16;;;;;;;23.50;13.27;;;12.70;77.60;;;;;;5093676;28;20196;-82
2021/05/30 03:05:41;;;;;;;22.50;12.90;;;12.60;78.30;;;;;;5107532;28;20221;-82
2021/05/30 03:08:07;;;;;;;25.20;14.73;;;12.70;77.90;;;;;;5122330;28;20633;-82
2021/05/30 03:10:33;;;;;;;25.53;14.10;;;12.70;77.70;;;;;;5121428;28;20175;-82
2021/05/30 03:12:59;;;;;;;25.87;16.07;;;12.60;77.60;;;;;;5121956;28;20668;-82
2021/05/30 03:15:27;;;;;;;30.50;16.25;;;12.70;77.70;;;;;;5121763;28;20481;-82
2021/05/30 03:17:53;;;;;;;23.65;14.15;;;12.60;77.70;;;;;;5121320;28;20250;-82
2021/05/30 03:20:19;;;;;;;26.83;15.67;;;12.40;77.90;;;;;;5122533;28;20167;-83
2021/05/30 03:22:45;;;;;;;22.88;13.50;;;12.50;78.20;;;;;;5121354;28;20233;-83
2021/05/30 03:25:12;;;;;;;27.55;15.20;;;12.50;78.20;;;;;;5124021;28;20175;-82
2021/05/30 03:27:38;;;;;;;24.83;14.68;;;12.40;78.10;;;;;;5125646;28;20493;-82
2021/05/30 03:30:05;;;;;;;20.73;13.60;;;12.50;78.20;;;;;;5123499;28;20201;-83
2021/05/30 03:32:31;;;;;;;26.65;14.68;;;12.50;78.20;;;;;;5122733;28;20240;-84
2021/05/30 03:34:57;;;;;;;26.57;15.13;;;12.40;78.20;;;;;;5122137;28;20273;-83
2021/05/30 03:37:22;;;;;;;25.93;15.23;;;12.40;78.30;;;;;;5123533;28;20230;-83
2021/05/30 03:39:49;;;;;;;27.17;14.40;;;12.50;78.20;;;;;;5123191;28;20418;-83
2021/05/30 03:42:25;;;;;;;24.33;14.93;;;12.50;78.00;;;;;;5124595;28;20309;-83
2021/05/30 03:44:51;;;;;;;29.75;14.15;;;12.30;77.90;;;;;;5124730;28;20154;-83
2021/05/30 03:47:17;;;;;;;25.40;14.70;;;12.30;78.20;;;;;;5121905;28;20171;-83
2021/05/30 03:49:43;;;;;;;25.80;15.87;;;12.30;79.20;;;;;;5123432;28;20191;-82
2021/05/30 03:52:09;;;;;;;25.03;16.00;;;12.30;78.40;;;;;;5129888;28;20460;-83
2021/05/30 03:54:36;;;;;;;31.80;16.77;;;12.30;78.40;;;;;;5131529;28;20475;-83
2021/05/30 03:57:02;;;;;;;29.70;15.05;;;12.40;78.20;;;;;;5120011;28;20260;-83
2021/05/30 03:59:28;;;;;;;24.13;14.38;;;12.40;78.10;;;;;;5119825;28;20270;-83
2021/05/30 04:01:54;;;;;;;27.58;16.00;;;12.40;78.00;;;;;;5118560;28;20210;-84
2021/05/30 04:04:20;;;;;;;31.10;17.63;;;12.40;78.00;;;;;;5117797;28;20224;-83
2021/05/30 04:06:46;;;;;;;32.67;16.63;;;12.30;78.20;;;;;;5100040;28;20172;-83
2021/05/30 04:09:11;;;;;;;29.40;14.93;;;12.40;78.20;;;;;;5099223;28;20745;-82
2021/05/30 04:11:37;;;;;;;27.07;16.00;;;12.40;78.10;;;;;;5100271;28;20214;-83
2021/05/30 04:14:03;;;;;;;30.43;18.03;;;12.30;78.30;;;;;;5099217;28;20709;-83
2021/05/30 04:16:28;;;;;;;23.80;15.43;;;12.30;78.30;;;;;;5099294;28;20235;-82
2021/05/30 04:18:54;;;;;;;27.27;17.13;;;12.30;78.50;;;;;;5099813;28;20179;-82
2021/05/30 04:21:20;;;;;;;26.43;17.03;;;12.30;78.50;;;;;;5098874;28;20176;-83
2021/05/30 04:23:46;;;;;;;29.47;16.23;;;12.30;78.60;;;;;;5099445;28;20925;-83
2021/05/30 04:26:12;;;;;;;28.03;16.40;;;12.50;78.60;;;;;;5099409;28;20172;-82
2021/05/30 04:28:38;;;;;;;27.83;17.30;;;12.40;78.20;;;;;;5100474;28;20179;-83
2021/05/30 04:31:04;;;;;;;28.43;16.40;;;12.30;78.10;;;;;;5099128;28;20482;-83
2021/05/30 04:33:30;;;;;;;28.40;16.58;;;12.40;78.20;;;;;;5099373;28;20441;-83
2021/05/30 04:35:56;;;;;;;27.77;17.70;;;12.50;78.20;;;;;;5100522;28;20176;-82
2021/05/30 04:38:21;;;;;;;29.50;17.93;;;12.60;77.90;;;;;;5099819;28;20505;-82
2021/05/30 04:40:48;;;;;;;30.40;17.40;;;12.60;77.50;;;;;;5099074;28;20418;-82
2021/05/30 04:43:14;;;;;;;31.60;17.15;;;12.60;77.20;;;;;;5099116;28;20245;-82
2021/05/30 04:45:40;;;;;;;30.88;16.25;;;12.70;77.10;;;;;;5100307;28;20176;-82
2021/05/30 04:48:06;;;;;;;31.03;17.40;;;12.70;77.10;;;;;;5101009;28;20548;-83
2021/05/30 04:50:32;;;;;;;28.10;17.70;;;12.70;76.90;;;;;;5110932;28;20408;-82
2021/05/30 04:52:58;;;;;;;28.80;17.17;;;12.60;76.80;;;;;;5119998;28;20612;-83
2021/05/30 04:55:23;;;;;;;31.20;18.57;;;12.70;77.00;;;;;;5119546;28;20409;-83
2021/05/30 04:57:49;;;;;;;26.43;15.70;;;12.60;76.90;;;;;;5121587;28;20205;-83
2021/05/30 05:00:16;;;;;;;27.35;17.52;;;12.70;77.10;;;;;;5126320;28;20187;-82
2021/05/30 05:02:42;;;;;;;27.48;18.00;;;12.90;76.80;;;;;;5129313;28;20259;-82
2021/05/30 05:05:12;;;;;;;26.52;16.73;;;12.80;76.40;;;;;;5128564;28;20179;-83
2021/05/30 05:07:42;;;;;;;29.48;17.40;;;12.90;76.10;;;;;;5119761;28;20190;-83
2021/05/30 05:10:09;;;;;;;25.92;16.40;;;12.90;76.10;;;;;;5118885;28;20147;-84
2021/05/30 05:12:35;;;;;;;33.17;18.70;;;12.90;75.90;;;;;;5119967;28;20210;-82
2021/05/30 05:15:01;;;;;;;29.35;18.45;;;13.00;75.50;;;;;;5121425;28;20205;-82
2021/05/30 05:17:27;;;;;;;31.07;16.30;;;13.10;75.30;;;;;;5119419;28;20546;-83
2021/05/30 05:19:53;;;;;;;32.13;19.40;;;13.30;75.10;;;;;;5117742;28;20405;-83
2021/05/30 05:22:19;;;;;;;28.65;16.98;;;13.50;74.30;;;;;;5115655;28;20202;-84
2021/05/30 05:24:45;;;;;;;24.60;16.80;;;13.50;73.60;;;;;;5116029;28;20167;-85
2021/05/30 05:27:11;;;;;;;27.90;17.13;;;13.70;73.40;;;;;;5117378;28;20166;-84
2021/05/30 05:29:37;;;;;;;26.95;16.48;;;13.80;73.20;;;;;;5115478;28;20550;-84
2021/05/30 05:32:03;;;;;;;26.50;16.80;;;14.10;72.60;;;;;;5117437;28;20227;-84
2021/05/30 05:34:29;;;;;;;24.55;17.13;;;14.60;71.10;;;;;;5116267;28;20410;-84
2021/05/30 05:36:54;;;;;;;23.93;16.50;;;15.20;69.10;;;;;;5118251;28;20248;-84
2021/05/30 05:39:20;;;;;;;27.10;18.17;;;15.40;67.00;;;;;;5121034;28;20433;-85
2021/05/30 05:41:49;;;;;;;21.33;15.03;;;15.80;66.00;;;;;;5118218;28;20284;-85
2021/05/30 05:44:14;;;;;;;25.80;17.13;;;16.30;64.80;;;;;;5116890;28;20923;-85
2021/05/30 05:46:40;;;;;;;21.97;14.17;;;16.60;63.60;;;;;;5117335;28;20198;-85
2021/05/30 05:49:06;;;;;;;21.30;15.13;;;17.30;62.10;;;;;;5115161;28;20417;-84
2021/05/30 05:51:31;;;;;;;21.43;15.43;;;17.80;59.60;;;;;;5094709;28;20622;-85
2021/05/30 05:53:57;;;;;;;22.73;15.60;;;18.20;58.50;;;;;;5095055;28;20199;-85
2021/05/30 05:56:23;;;;;;;24.20;16.40;;;18.10;57.20;;;;;;5096621;28;20195;-83
2021/05/30 05:58:49;;;;;;;29.33;18.37;;;17.20;57.90;;;;;;5098276;28;20284;-84
2021/05/30 06:01:14;;;;;;;21.07;16.17;;;17.10;59.40;;;;;;5096259;28;20654;-83
2021/05/30 06:03:40;;;;;;;22.37;15.73;;;17.20;59.30;;;;;;5101420;28;20265;-84
2021/05/30 06:06:06;;;;;;;28.70;16.00;;;17.10;59.20;;;;;;5099961;28;20208;-85
2021/05/30 06:08:32;;;;;;;26.50;17.77;;;16.70;60.10;;;;;;5100522;28;20202;-83
2021/05/30 06:10:58;;;;;;;23.60;15.45;;;16.80;60.40;;;;;;5102937;28;20240;-84
2021/05/30 06:13:24;;;;;;;22.80;16.00;;;16.40;61.00;;;;;;5105023;28;20263;-84
2021/05/30 06:15:50;;;;;;;23.15;17.05;;;16.80;60.70;;;;;;5105348;28;21360;-83
2021/05/30 06:18:17;;;;;;;26.43;17.63;;;16.70;60.80;;;;;;5101407;28;20291;-83
2021/05/30 06:20:45;;;;;;;27.83;17.20;;;16.80;60.70;;;;;;5103921;28;20650;-83
2021/05/30 06:23:11;;;;;;;24.25;17.02;;;16.70;61.00;;;;;;5095090;28;20203;-84
2021/05/30 06:25:38;;;;;;;29.38;19.58;;;16.80;60.60;;;;;;5093728;28;20178;-85
2021/05/30 06:28:04;;;;;;;27.48;18.27;;;17.30;60.60;;;;;;5092923;28;20191;-85
2021/05/30 06:30:34;;;;;;;24.52;17.48;;;17.30;59.40;;;;;;5093526;28;20183;-84
2021/05/30 06:33:00;;;;;;;25.95;17.65;;;17.80;58.60;;;;;;5092922;28;20351;-84
2021/05/30 06:35:29;;;;;;;26.13;18.75;;;18.20;57.10;;;;;;5080648;28;20197;-84
2021/05/30 06:37:55;;;;;;;23.35;17.63;;;19.10;55.50;;;;;;5075343;28;20199;-83
2021/05/30 06:40:21;;;;;;;22.97;18.97;;;19.90;54.00;;;;;;5078653;28;20297;-84
2021/05/30 06:42:49;;;;;;;23.77;17.40;;;20.60;51.50;;;;;;5077394;28;20497;-83
2021/05/30 06:45:15;;;;;;;20.03;16.73;;;20.90;49.40;;;;;;5080006;28;20418;-86
2021/05/30 06:47:40;;;;;;;23.60;18.00;;;21.40;48.40;;;;;;5090308;28;20829;-83
2021/05/30 06:50:07;;;;;;;20.17;16.77;;;21.60;47.40;;;;;;5093195;28;20474;-82
2021/05/30 06:52:33;;;;;;;22.37;18.47;;;21.10;47.20;;;;;;5083784;28;20197;-81
2021/05/30 06:54:59;;;;;;;25.30;19.70;;;20.90;47.60;;;;;;5101464;28;20432;-81
2021/05/30 06:57:25;;;;;;;24.67;18.60;;;20.30;49.10;;;;;;5097636;28;20451;-81
2021/05/30 06:59:50;;;;;;;22.67;16.77;;;19.80;50.20;;;;;;5082158;28;20425;-81
2021/05/30 07:02:16;;;;;;;26.37;17.50;;;19.30;51.60;;;;;;5078879;28;20196;-81
2021/05/30 07:04:42;;;;;;;24.33;19.02;;;18.90;52.60;;;;;;5090552;28;20242;-80
2021/05/30 07:07:08;;;;;;;28.30;18.90;;;18.70;53.60;;;;;;5103775;28;20643;-80
2021/05/30 07:09:34;;;;;;;25.27;18.77;;;18.80;54.00;;;;;;5101511;28;20405;-80
2021/05/30 07:12:00;;;;;;;26.93;19.20;;;18.80;54.00;;;;;;5098361;28;20550;-80
2021/05/30 07:14:25;;;;;;;27.40;18.37;;;18.90;54.00;;;;;;5101433;28;20417;-80
2021/05/30 07:16:56;;;;;;;31.07;19.43;;;19.10;53.90;;;;;;5099864;28;20461;-80
2021/05/30 07:19:22;;;;;;;23.10;18.40;;;19.20;53.30;;;;;;5101760;28;20639;-80
2021/05/30 07:21:49;;;;;;;26.08;19.35;;;19.00;53.20;;;;;;5105522;28;20191;-80
2021/05/30 07:24:16;;;;;;;31.45;17.15;;;18.90;53.80;;;;;;5093847;28;20263;-81
2021/05/30 07:26:42;;;;;;;30.20;18.45;;;19.10;54.10;;;;;;5080753;28;20169;-80
2021/05/30 07:29:09;;;;;;;26.67;19.33;;;19.10;53.70;;;;;;5081434;28;20237;-80
2021/05/30 07:31:35;;;;;;;27.05;19.63;;;19.00;53.70;;;;;;5080192;28;20568;-81
2021/05/30 07:34:01;;;;;;;28.05;18.92;;;18.80;54.40;;;;;;5080845;28;20575;-81
2021/05/30 07:36:28;;;;;;;27.23;19.08;;;18.60;54.80;;;;;;5082520;28;20196;-82
2021/05/30 07:38:57;;;;;;;30.60;19.95;;;18.30;55.40;;;;;;5081632;28;20678;-82
2021/05/30 07:41:23;;;;;;;26.88;19.08;;;18.10;56.40;;;;;;5076458;28;20192;-86
2021/05/30 07:43:49;;;;;;;28.37;20.33;;;18.20;56.70;;;;;;5076059;28;20200;-85
2021/05/30 07:46:15;;;;;;;29.17;20.43;;;18.20;57.20;;;;;;5076962;28;20184;-83
2021/05/30 07:48:41;;;;;;;28.23;18.63;;;18.00;57.40;;;;;;5083877;28;20414;-83
2021/05/30 07:51:07;;;;;;;31.37;21.30;;;17.70;58.30;;;;;;5113496;28;20197;-85
2021/05/30 07:53:33;;;;;;;27.63;19.40;;;17.60;58.50;;;;;;5116687;28;20238;-84
2021/05/30 07:55:59;;;;;;;32.75;19.52;;;17.40;59.10;;;;;;5115893;28;20409;-84
2021/05/30 07:58:25;;;;;;;30.67;21.27;;;17.00;60.10;;;;;;5099222;28;20706;-84
2021/05/30 08:00:51;;;;;;;30.08;21.50;;;17.10;60.50;;;;;;5095508;28;20833;-84
2021/05/30 08:03:18;;;;;;;34.15;20.60;;;17.20;60.30;;;;;;5096715;28;20290;-85
2021/05/30 08:05:44;;;;;;;33.10;21.33;;;17.20;60.10;;;;;;5109156;28;20218;-85
2021/05/30 08:08:09;;;;;;;33.67;20.48;;;17.40;60.00;;;;;;5117129;28;20183;-85
2021/05/30 08:10:35;;;;;;;36.93;20.93;;;17.50;59.70;;;;;;5116144;28;20674;-85
2021/05/30 08:13:03;;;;;;;31.80;20.55;;;17.50;59.20;;;;;;5116532;28;20297;-85
2021/05/30 08:15:29;;;;;;;30.10;21.10;;;17.60;58.80;;;;;;5117166;28;20717;-84
2021/05/30 08:17:55;;;;;;;29.10;19.53;;;17.30;58.90;;;;;;5116225;28;20224;-85
2021/05/30 08:20:25;;;;;;;28.42;19.70;;;17.20;59.50;;;;;;5116357;28;20262;-85
2021/05/30 08:22:51;;;;;;;36.00;22.50;;;17.20;59.90;;;;;;5115953;28;20283;-84
2021/05/30 08:25:18;;;;;;;28.02;18.60;;;17.30;59.70;;;;;;5115142;28;20182;-85
2021/05/30 08:27:45;;;;;;;29.65;19.92;;;17.30;60.00;;;;;;5116534;28;20177;-84
2021/05/30 08:30:12;;;;;;;38.33;21.63;;;17.30;59.70;;;;;;5117737;28;20175;-84
2021/05/30 08:32:38;;;;;;;35.92;21.02;;;17.30;59.70;;;;;;5125691;28;20202;-85
2021/05/30 08:35:05;;;;;;;34.50;22.75;;;17.30;59.70;;;;;;5100197;28;20183;-84
2021/05/30 08:37:31;;;;;;;27.25;18.85;;;17.10;60.00;;;;;;5115920;28;20198;-85
2021/05/30 08:39:57;;;;;;;29.20;18.23;;;17.20;60.60;;;;;;5116157;28;20178;-85
2021/05/30 08:42:23;;;;;;;35.20;18.87;;;17.40;60.70;;;;;;5115659;28;20517;-85
2021/05/30 08:44:53;;;;;;;33.45;20.05;;;17.60;59.90;;;;;;5116330;28;20175;-85
2021/05/30 08:47:22;;;;;;;27.92;18.40;;;17.70;58.60;;;;;;5117057;28;20183;-85
2021/05/30 08:49:49;;;;;;;36.58;20.40;;;17.90;58.10;;;;;;5116163;28;20572;-85
2021/05/30 08:52:16;;;;;;;27.52;19.55;;;17.70;58.30;;;;;;5115425;28;20202;-86
2021/05/30 08:54:42;;;;;;;33.28;20.55;;;17.80;58.00;;;;;;5116238;28;20175;-85
2021/05/30 08:57:09;;;;;;;31.13;19.52;;;17.80;57.50;;;;;;5108936;28;20191;-85
2021/05/30 08:59:36;;;;;;;37.83;19.55;;;17.90;57.60;;;;;;5095393;28;20184;-86
2021/05/30 09:02:11;;;;;;;26.95;16.40;;;18.00;57.70;;;;;;5097504;28;20179;-86
2021/05/30 09:04:39;;;;;;;24.65;17.02;;;17.70;56.10;;;;;;5095394;28;20190;-85
2021/05/30 09:07:06;;;;;;;26.48;15.98;;;17.90;56.00;;;;;;5096894;28;20176;-86
2021/05/30 09:09:40;;;;;;;29.65;17.30;;;18.00;57.40;;;;;;5096611;28;20187;-86
2021/05/30 09:12:18;;;;;;;24.60;16.75;;;18.10;56.10;;;;;;5095320;28;20270;-86
2021/05/30 09:14:46;;;;;;;33.00;19.50;;;18.20;56.00;;;;;;5096833;28;20174;-86
2021/05/30 09:17:12;;;;;;;28.38;16.42;;;18.10;55.30;;;;;;5096584;28;20196;-86
2021/05/30 09:19:46;;;;;;;29.70;17.00;;;18.10;55.60;;;;;;5096565;28;20183;-85
2021/05/30 09:22:29;;;;;;;30.45;19.33;;;18.20;55.80;;;;;;5097130;28;20588;-86
2021/05/30 09:25:08;;;;;;;23.00;16.58;;;18.20;55.80;;;;;;5098259;28;20175;-85
2021/05/30 09:27:36;;;;;;;26.15;17.25;;;18.30;55.10;;;;;;5096377;28;20179;-86
2021/05/30 09:30:25;;;;;;;25.63;17.75;;;18.30;54.20;;;;;;5095759;28;20180;-86
2021/05/30 09:32:57;;;;;;;36.72;16.88;;;18.30;54.20;;;;;;5096528;28;20200;-86
2021/05/30 09:35:25;;;;;;;25.95;17.45;;;18.30;53.70;;;;;;5095350;28;20266;-86
2021/05/30 09:37:59;;;;;;;24.23;15.38;;;18.20;54.10;;;;;;5094990;28;20200;-86
2021/05/30 09:40:46;;;;;;;19.75;14.10;;;18.20;54.30;;;;;;5095575;28;20658;-86
2021/05/30 09:43:15;;;;;;;23.10;13.25;;;18.30;53.50;;;;;;5096635;28;20244;-86
2021/05/30 09:45:56;;;;;;;23.75;14.43;;;18.50;53.10;;;;;;5095836;28;20221;-86
2021/05/30 09:48:22;;;;;;;21.65;13.38;;;18.90;52.70;;;;;;5094037;28;20171;-86
2021/05/30 09:51:07;;;;;;;22.60;14.63;;;18.70;51.70;;;;;;5093908;28;20525;-86
2021/05/30 09:53:43;;;;;;;20.40;13.82;;;18.80;51.80;;;;;;5094024;28;20196;-86
2021/05/30 09:56:39;;;;;;;29.98;14.98;;;18.50;52.30;;;;;;5093799;28;20266;-86
2021/05/30 09:59:08;;;;;;;14.13;11.05;;;18.60;51.70;;;;;;5090224;28;20168;-86
2021/05/30 10:01:52;;;;;;;18.02;11.77;;;18.70;50.80;;;;;;5074753;28;20223;-85
2021/05/30 10:04:20;;;;;;;13.27;10.77;;;18.80;50.20;;;;;;5076855;28;20306;-85
2021/05/30 10:06:46;;;;;;;17.45;10.80;;;19.00;50.10;;;;;;5114756;28;20269;-86
2021/05/30 10:09:13;;;;;;;14.35;10.38;;;19.10;50.20;;;;;;5115584;28;20164;-86
2021/05/30 10:11:40;;;;;;;8.05;7.15;;;19.20;49.70;;;;;;5113710;28;20221;-86
2021/05/30 10:14:07;;;;;;;6.13;5.00;;;19.10;46.90;;;;;;5114362;28;20202;-86
2021/05/30 10:16:34;;;;;;;9.68;6.93;;;19.10;44.10;;;;;;5115410;28;20195;-86
2021/05/30 10:19:07;;;;;;;8.82;7.10;;;19.30;46.20;;;;;;5113924;28;20615;-85
2021/05/30 10:21:34;;;;;;;7.93;5.75;;;19.40;44.80;;;;;;5114883;28;20173;-86
2021/05/30 10:24:00;;;;;;;10.23;3.83;;;19.40;44.40;;;;;;5116097;28;20220;-86
2021/05/30 10:26:26;;;;;;;5.85;3.95;;;19.30;40.30;;;;;;5114396;28;20190;-86
2021/05/30 10:29:12;;;;;;;5.00;4.43;;;19.30;40.20;;;;;;5118871;28;20179;-86
2021/05/30 10:31:40;;;;;;;4.78;4.30;;;19.50;39.60;;;;;;5115902;28;20405;-86
2021/05/30 10:34:23;;;;;;;4.80;4.30;;;19.60;40.20;;;;;;5114308;28;20203;-86
2021/05/30 10:36:59;;;;;;;5.00;4.05;;;19.50;39.60;;;;;;5114443;28;20222;-86
2021/05/30 10:39:31;;;;;;;4.50;4.10;;;19.50;38.70;;;;;;5113306;28;20525;-86
2021/05/30 10:42:22;;;;;;;6.47;5.85;;;19.70;39.00;;;;;;5112735;28;20203;-86
2021/05/30 10:45:05;;;;;;;9.85;5.97;;;19.80;41.50;;;;;;5113319;28;20224;-86
2021/05/30 10:47:43;;;;;;;8.80;7.03;;;19.70;40.30;;;;;;5114141;28;20174;-86
2021/05/30 10:50:12;;;;;;;8.75;6.57;;;19.80;40.10;;;;;;5107330;28;20262;-86
2021/05/30 10:52:40;;;;;;;7.25;5.53;;;19.70;40.50;;;;;;5095441;28;20197;-86
2021/05/30 10:55:18;;;;;;;5.35;4.10;;;19.80;40.00;;;;;;5093605;28;20274;-86
2021/05/30 10:57:49;;;;;;;7.53;6.10;;;19.80;41.10;;;;;;5097362;28;20191;-86
2021/05/30 11:00:20;;;;;;;6.45;4.80;;;20.00;41.00;;;;;;5093656;28;20635;-86
2021/05/30 11:03:12;;;;;;;10.98;5.97;;;20.00;41.30;;;;;;5092096;28;20230;-86
2021/05/30 11:05:50;;;;;;;8.40;6.80;;;20.20;41.20;;;;;;5096805;28;20257;-86
2021/05/30 11:08:31;;;;;;;8.23;6.47;;;20.10;39.90;;;;;;5113592;28;20203;-86
2021/05/30 11:11:20;;;;;;;10.23;7.15;;;20.20;40.60;;;;;;5112968;28;20277;-86
2021/05/30 11:13:53;;;;;;;10.18;6.10;;;20.30;40.50;;;;;;5114226;28;20226;-86
2021/05/30 11:16:21;;;;;;;10.73;6.95;;;20.20;39.50;;;;;;5112731;28;20218;-86
2021/05/30 11:18:57;;;;;;;9.00;7.22;;;20.10;40.20;;;;;;5114659;28;20172;-87
2021/05/30 11:21:31;;;;;;;8.32;7.53;;;20.20;40.50;;;;;;5112663;28;20185;-86
2021/05/30 11:24:05;;;;;;;10.38;7.88;;;20.20;40.40;;;;;;5112632;28;20198;-86
2021/05/30 11:26:30;;;;;;;8.18;6.93;;;20.20;40.50;;;;;;5113225;28;20264;-86
2021/05/30 11:28:56;;;;;;;11.77;6.77;;;20.30;41.80;;;;;;5116378;28;20185;-86
2021/05/30 11:31:22;;;;;;;10.83;7.80;;;20.50;40.40;;;;;;5115836;28;20436;-86
2021/05/30 11:34:01;;;;;;;10.33;6.90;;;20.50;40.50;;;;;;5115738;28;20436;-85
2021/05/30 11:36:30;;;;;;;9.68;7.00;;;20.50;40.00;;;;;;5116921;28;20497;-86
2021/05/30 11:38:59;;;;;;;11.02;6.47;;;20.50;40.30;;;;;;5117449;28;20187;-86
2021/05/30 11:41:30;;;;;;;8.57;5.90;;;20.50;39.50;;;;;;5115778;28;20179;-86
2021/05/30 11:44:11;;;;;;;9.80;5.90;;;20.60;39.10;;;;;;5115889;28;20195;-86
2021/05/30 11:46:38;;;;;;;9.07;5.82;;;20.70;40.20;;;;;;5117347;28;20630;-86
2021/05/30 11:49:14;;;;;;;7.80;5.40;;;20.70;40.10;;;;;;5115635;28;20195;-86
2021/05/30 11:52:01;;;;;;;7.82;5.28;;;20.90;39.10;;;;;;5114842;28;20268;-86
2021/05/30 11:54:33;;;;;;;6.47;4.70;;;20.90;38.90;;;;;;5117064;28;20520;-86
2021/05/30 11:57:04;;;;;;;10.43;6.97;;;20.90;37.70;;;;;;5111270;28;20184;-86
2021/05/30 11:59:41;;;;;;;7.45;6.25;;;20.90;37.60;;;;;;5095342;28;20175;-86
2021/05/30 12:02:08;;;;;;;8.23;5.70;;;21.00;37.90;;;;;;5094904;28;20213;-86
2021/05/30 12:04:39;;;;;;;5.75;4.38;;;21.20;37.70;;;;;;5095418;28;20186;-87
2021/05/30 12:07:09;;;;;;;4.72;4.10;;;21.10;36.50;;;;;;5096224;28;20309;-86
2021/05/30 12:10:03;;;;;;;3.97;3.57;;;21.10;35.00;;;;;;5095534;28;20168;-88
2021/05/30 12:12:36;;;;;;;5.20;3.53;;;21.20;35.90;;;;;;5091213;28;20461;-87
2021/05/30 12:15:21;;;;;;;4.77;3.60;;;21.30;36.80;;;;;;5095503;28;20417;-86
2021/05/30 12:18:04;;;;;;;7.50;4.80;;;21.50;36.70;;;;;;5095577;28;20465;-86
2021/05/30 12:20:35;;;;;;;7.32;5.25;;;21.40;35.90;;;;;;5095514;28;20414;-87
2021/05/30 12:23:21;;;;;;;7.23;4.10;;;21.40;35.50;;;;;;5095852;28;20647;-86
2021/05/30 12:26:05;;;;;;;5.83;5.23;;;21.50;35.30;;;;;;5095648;28;20889;-86
2021/05/30 12:28:40;;;;;;;7.18;3.70;;;21.50;34.90;;;;;;5095597;28;20417;-86
2021/05/30 12:31:15;;;;;;;6.97;3.50;;;21.70;35.80;;;;;;5095502;28;20168;-86
2021/05/30 12:34:03;;;;;;;4.37;3.67;;;21.60;34.00;;;;;;5095685;28;20445;-86
2021/05/30 12:36:29;;;;;;;4.63;3.50;;;21.50;33.60;;;;;;5096068;28;20541;-86
2021/05/30 12:39:15;;;;;;;7.07;4.40;;;21.60;33.90;;;;;;5099543;28;20463;-86